Time;durP1;ratioP1;P1;durP2;ratioP2;P2;SDS_P1;SDS_P2;PMS_P1;PMS_P2;Temp;Humidity;BMP_temperature;BMP_pressure;BME280_temperature;BME280_humidity;BME280_pressure;Samples;Min_cycle;Max_cycle;Signal;HPM_P1;HPM_P2
2024/03/24 00:00:14;;;;;;;1.40;1.30;;;16.50;49.90;;;;;;4973743;28;20501;-78
2024/03/24 00:02:41;;;;;;;2.50;1.50;;;16.50;49.70;;;;;;4959323;28;20442;-80
2024/03/24 00:05:08;;;;;;;2.60;1.60;;;16.50;49.60;;;;;;4974873;28;20462;-79
2024/03/24 00:07:34;;;;;;;1.97;1.77;;;16.50;49.60;;;;;;4971334;28;20451;-81
2024/03/24 00:10:01;;;;;;;1.57;1.47;;;16.50;49.80;;;;;;4974216;28;20513;-81
2024/03/24 00:12:29;;;;;;;1.97;1.50;;;16.50;49.80;;;;;;4972879;28;20224;-79
2024/03/24 00:14:56;;;;;;;4.10;1.83;;;16.50;49.80;;;;;;4970082;28;20451;-80
2024/03/24 00:17:22;;;;;;;2.80;1.67;;;16.50;50.00;;;;;;4969971;28;20949;-82
2024/03/24 00:19:49;;;;;;;8.10;1.63;;;16.50;50.00;;;;;;4970978;28;20569;-82
2024/03/24 00:22:16;;;;;;;1.67;1.57;;;16.50;49.80;;;;;;4966564;28;20466;-80
2024/03/24 00:24:43;;;;;;;2.60;1.70;;;16.50;50.00;;;;;;4970836;28;20473;-81
2024/03/24 00:27:09;;;;;;;4.00;1.90;;;16.50;49.80;;;;;;4969636;28;20450;-79
2024/03/24 00:29:38;;;;;;;3.43;1.60;;;16.50;50.00;;;;;;4974798;28;20457;-78
2024/03/24 00:32:05;;;;;;;2.50;1.70;;;16.50;50.10;;;;;;4971393;28;20518;-79
2024/03/24 00:34:32;;;;;;;3.93;1.90;;;16.50;50.00;;;;;;4967367;28;20486;-79
2024/03/24 00:36:58;;;;;;;2.43;1.50;;;16.50;50.00;;;;;;4969807;28;20442;-80
2024/03/24 00:39:25;;;;;;;2.43;1.57;;;16.50;50.10;;;;;;4970121;28;20447;-81
2024/03/24 00:41:51;;;;;;;1.70;1.40;;;16.50;50.20;;;;;;4970985;28;20447;-80
2024/03/24 00:44:18;;;;;;;1.77;1.50;;;16.50;50.10;;;;;;4969595;28;20493;-79
2024/03/24 00:46:46;;;;;;;2.10;1.80;;;16.50;50.00;;;;;;4966401;28;20446;-79
2024/03/24 00:49:14;;;;;;;3.50;1.93;;;16.40;49.80;;;;;;4970425;28;20566;-79
2024/03/24 00:51:40;;;;;;;3.53;2.33;;;16.50;50.10;;;;;;4968169;28;20438;-79
2024/03/24 00:54:07;;;;;;;2.10;1.50;;;16.40;49.90;;;;;;4970420;28;20505;-79
2024/03/24 00:56:33;;;;;;;3.60;2.03;;;16.40;50.00;;;;;;4967758;28;20447;-78
2024/03/24 00:59:01;;;;;;;3.23;1.93;;;16.40;49.70;;;;;;4967864;28;20442;-78
2024/03/24 01:01:27;;;;;;;2.80;1.73;;;16.40;49.90;;;;;;4968384;28;20438;-79
2024/03/24 01:03:56;;;;;;;2.60;2.07;;;16.40;50.00;;;;;;4964301;28;20461;-80
2024/03/24 01:06:22;;;;;;;2.30;1.77;;;16.40;50.00;;;;;;4964664;28;20443;-78
2024/03/24 01:08:49;;;;;;;2.77;1.93;;;16.40;50.60;;;;;;4967916;28;20450;-79
2024/03/24 01:11:15;;;;;;;2.17;1.57;;;16.30;49.90;;;;;;4965394;28;20443;-76
2024/03/24 01:13:42;;;;;;;1.97;1.80;;;16.30;49.90;;;;;;4963837;28;20577;-78
2024/03/24 01:16:08;;;;;;;3.10;2.10;;;16.40;50.10;;;;;;4969282;28;20462;-79
2024/03/24 01:18:35;;;;;;;2.27;1.37;;;16.30;49.90;;;;;;4971758;28;20447;-78
2024/03/24 01:21:02;;;;;;;5.77;2.10;;;16.30;49.60;;;;;;4966882;28;20987;-79
2024/03/24 01:23:29;;;;;;;4.70;2.37;;;16.40;49.90;;;;;;4972038;28;20439;-77
2024/03/24 01:25:55;;;;;;;4.23;1.80;;;16.30;50.00;;;;;;4965441;28;20475;-79
2024/03/24 01:28:22;;;;;;;3.07;1.90;;;16.30;50.00;;;;;;4958048;28;20504;-78
2024/03/24 01:30:48;;;;;;;4.67;2.20;;;16.30;50.00;;;;;;4970935;28;20451;-79
2024/03/24 01:33:15;;;;;;;2.20;2.00;;;16.30;49.80;;;;;;4965805;28;20458;-78
2024/03/24 01:35:45;;;;;;;2.33;2.10;;;16.30;49.90;;;;;;4968154;28;20469;-79
2024/03/24 01:38:14;;;;;;;6.00;2.23;;;16.30;49.80;;;;;;4970002;28;20447;-79
2024/03/24 01:40:46;;;;;;;3.43;2.23;;;16.30;49.90;;;;;;4970681;28;20442;-79
2024/03/24 01:43:13;;;;;;;5.27;2.47;;;16.30;49.80;;;;;;4967732;28;20437;-78
2024/03/24 01:45:39;;;;;;;3.70;1.80;;;16.30;49.80;;;;;;4968469;28;20466;-78
2024/03/24 01:48:07;;;;;;;3.23;2.07;;;16.30;49.80;;;;;;4964844;28;20471;-78
2024/03/24 01:50:33;;;;;;;2.77;1.90;;;16.30;49.80;;;;;;4965815;28;20447;-77
2024/03/24 01:53:00;;;;;;;2.07;1.70;;;16.30;49.90;;;;;;4959367;28;20471;-78
2024/03/24 01:55:28;;;;;;;3.03;2.40;;;16.30;50.00;;;;;;4952924;28;20455;-77
2024/03/24 01:57:55;;;;;;;7.27;2.50;;;16.30;49.90;;;;;;4970206;28;20445;-77
2024/03/24 02:00:21;;;;;;;4.57;2.13;;;16.30;49.70;;;;;;4971425;28;20451;-77
2024/03/24 02:02:48;;;;;;;3.70;2.20;;;16.20;49.80;;;;;;4971655;28;20537;-79
2024/03/24 02:05:14;;;;;;;3.87;2.40;;;16.20;49.80;;;;;;4970423;28;20228;-79
2024/03/24 02:07:41;;;;;;;5.70;2.50;;;16.20;49.70;;;;;;4968953;28;20446;-79
2024/03/24 02:10:07;;;;;;;3.10;2.20;;;16.20;50.40;;;;;;4971557;28;20212;-78
2024/03/24 02:12:35;;;;;;;5.10;2.63;;;16.20;49.70;;;;;;4971923;28;20445;-78
2024/03/24 02:15:01;;;;;;;7.63;2.60;;;16.20;49.70;;;;;;4969753;28;20473;-78
2024/03/24 02:17:28;;;;;;;3.00;2.43;;;16.20;49.80;;;;;;4970507;28;20442;-78
2024/03/24 02:19:54;;;;;;;5.77;2.60;;;16.20;49.70;;;;;;4971796;28;20438;-80
2024/03/24 02:22:20;;;;;;;2.30;2.17;;;16.20;49.90;;;;;;4971353;28;20473;-80
2024/03/24 02:24:48;;;;;;;4.70;2.40;;;16.20;49.90;;;;;;4971740;28;20707;-79
2024/03/24 02:27:14;;;;;;;2.67;2.43;;;16.20;49.80;;;;;;4972041;28;20446;-79
2024/03/24 02:29:40;;;;;;;2.53;2.23;;;16.20;49.90;;;;;;4972321;28;20447;-78
2024/03/24 02:32:07;;;;;;;4.77;2.33;;;16.20;49.90;;;;;;4968894;28;20466;-80
2024/03/24 02:34:33;;;;;;;2.83;2.00;;;16.20;49.90;;;;;;4963431;28;20482;-78
2024/03/24 02:37:01;;;;;;;2.80;2.60;;;16.20;49.90;;;;;;4971336;28;20444;-78
2024/03/24 02:39:28;;;;;;;2.50;2.30;;;16.10;49.90;;;;;;4979162;28;20449;-79
2024/03/24 02:41:56;;;;;;;5.03;2.20;;;16.10;50.00;;;;;;4981985;28;20446;-79
2024/03/24 02:44:22;;;;;;;4.30;2.70;;;16.10;49.80;;;;;;4990578;28;20495;-78
2024/03/24 02:46:49;;;;;;;4.67;2.77;;;16.10;49.90;;;;;;4980756;28;20501;-80
2024/03/24 02:49:15;;;;;;;2.30;2.20;;;16.10;49.90;;;;;;4972507;28;20458;-79
2024/03/24 02:51:42;;;;;;;4.43;2.40;;;16.10;50.10;;;;;;4981031;28;20447;-79
2024/03/24 02:54:08;;;;;;;3.50;2.23;;;16.10;50.00;;;;;;4975023;28;20478;-78
2024/03/24 02:56:35;;;;;;;3.63;2.60;;;16.10;49.90;;;;;;4969775;28;20449;-80
2024/03/24 02:59:03;;;;;;;4.93;2.67;;;16.10;50.00;;;;;;4980312;28;20454;-80
2024/03/24 03:01:30;;;;;;;4.90;2.57;;;16.10;50.00;;;;;;4968084;28;20442;-80
2024/03/24 03:03:57;;;;;;;3.97;2.67;;;16.10;50.00;;;;;;4983671;28;20442;-79
2024/03/24 03:06:24;;;;;;;3.00;2.60;;;16.10;50.00;;;;;;4972804;28;20442;-79
2024/03/24 03:08:50;;;;;;;4.07;2.97;;;16.10;49.90;;;;;;4979432;28;20434;-78
2024/03/24 03:11:17;;;;;;;5.30;2.93;;;16.10;49.90;;;;;;4972898;28;20448;-79
2024/03/24 03:13:43;;;;;;;2.67;2.30;;;16.10;49.90;;;;;;4959743;28;20470;-79
2024/03/24 03:16:12;;;;;;;4.20;2.90;;;16.10;49.90;;;;;;4970764;28;20486;-79
2024/03/24 03:18:38;;;;;;;2.63;2.27;;;16.10;49.90;;;;;;4981664;28;20284;-78
2024/03/24 03:21:05;;;;;;;4.23;3.07;;;16.10;49.80;;;;;;4975824;28;20434;-78
2024/03/24 03:23:31;;;;;;;3.10;2.50;;;16.10;50.00;;;;;;4972417;28;20698;-79
2024/03/24 03:25:58;;;;;;;3.73;3.10;;;16.10;50.00;;;;;;4972358;28;20474;-78
2024/03/24 03:28:24;;;;;;;3.70;2.60;;;16.10;50.00;;;;;;4980826;28;20441;-77
2024/03/24 03:30:51;;;;;;;4.70;2.60;;;16.10;49.80;;;;;;4982703;28;20474;-79
2024/03/24 03:33:18;;;;;;;3.80;3.17;;;16.10;50.00;;;;;;4973688;28;20470;-78
2024/03/24 03:35:46;;;;;;;3.90;2.87;;;16.10;50.00;;;;;;4991082;28;20458;-77
2024/03/24 03:38:12;;;;;;;3.10;2.70;;;16.10;50.10;;;;;;4973862;28;20513;-77
2024/03/24 03:40:39;;;;;;;3.90;2.40;;;16.00;50.10;;;;;;4982937;28;20457;-78
2024/03/24 03:43:05;;;;;;;2.90;2.47;;;16.10;50.20;;;;;;4981554;28;20438;-77
2024/03/24 03:45:32;;;;;;;3.17;2.50;;;16.10;50.20;;;;;;4970677;28;20710;-76
2024/03/24 03:47:58;;;;;;;5.47;2.50;;;16.10;50.20;;;;;;4974040;28;20434;-77
2024/03/24 03:50:33;;;;;;;3.13;2.47;;;16.10;50.20;;;;;;4972934;28;20517;-76
2024/03/24 03:53:01;;;;;;;2.57;2.30;;;16.10;50.20;;;;;;4973580;28;20500;-78
2024/03/24 03:55:28;;;;;;;3.73;2.90;;;16.00;50.40;;;;;;4973374;28;20469;-78
2024/03/24 03:57:54;;;;;;;2.70;2.50;;;16.00;50.40;;;;;;4973555;28;20434;-77
2024/03/24 04:00:21;;;;;;;5.27;3.33;;;16.00;50.30;;;;;;4973557;28;20950;-78
2024/03/24 04:02:48;;;;;;;6.33;3.00;;;16.00;50.30;;;;;;4973539;28;20439;-80
2024/03/24 04:05:15;;;;;;;2.80;2.37;;;16.00;50.30;;;;;;4973466;28;20458;-79
2024/03/24 04:07:42;;;;;;;3.03;2.73;;;16.00;50.30;;;;;;4973284;28;20446;-79
2024/03/24 04:10:09;;;;;;;7.03;2.70;;;16.00;50.20;;;;;;4973230;28;20446;-79
2024/03/24 04:12:37;;;;;;;2.93;2.60;;;16.00;50.40;;;;;;4972860;28;20446;-78
2024/03/24 04:15:03;;;;;;;2.67;2.47;;;16.00;50.30;;;;;;4973022;28;20478;-78
2024/03/24 04:17:31;;;;;;;2.30;2.20;;;16.10;50.50;;;;;;4973608;28;20442;-78
2024/03/24 04:19:58;;;;;;;2.70;2.50;;;16.00;50.40;;;;;;4973496;28;20450;-79
2024/03/24 04:22:27;;;;;;;2.50;2.30;;;16.00;50.40;;;;;;4973246;28;20451;-78
2024/03/24 04:24:55;;;;;;;2.93;2.50;;;16.00;50.50;;;;;;4973120;28;20461;-79
2024/03/24 04:27:21;;;;;;;2.77;2.57;;;16.00;50.50;;;;;;4973449;28;20434;-79
2024/03/24 04:29:48;;;;;;;4.07;2.67;;;16.00;50.50;;;;;;4973280;28;20442;-78
2024/03/24 04:32:14;;;;;;;2.47;2.27;;;16.00;50.40;;;;;;4973012;28;20583;-78
2024/03/24 04:34:41;;;;;;;4.13;2.40;;;15.90;50.50;;;;;;4972990;28;20239;-77
2024/03/24 04:37:08;;;;;;;2.53;2.03;;;16.00;50.70;;;;;;4973618;28;20439;-78
2024/03/24 04:39:34;;;;;;;2.73;2.20;;;15.90;50.50;;;;;;4973285;28;20211;-78
2024/03/24 04:42:03;;;;;;;4.30;2.10;;;15.90;50.70;;;;;;4973516;28;20431;-79
2024/03/24 04:44:30;;;;;;;1.90;1.80;;;16.00;50.80;;;;;;4974066;28;20516;-78
2024/03/24 04:46:57;;;;;;;2.67;1.90;;;16.00;50.70;;;;;;4974074;28;20446;-80
2024/03/24 04:49:23;;;;;;;2.43;2.23;;;16.00;50.60;;;;;;4973985;28;20454;-78
2024/03/24 04:51:53;;;;;;;2.23;2.13;;;15.90;50.60;;;;;;4973939;28;20450;-78
2024/03/24 04:54:19;;;;;;;2.30;2.10;;;15.90;50.80;;;;;;4973027;28;20224;-78
2024/03/24 04:56:46;;;;;;;3.43;2.00;;;15.90;50.80;;;;;;4973017;28;20446;-79
2024/03/24 04:59:14;;;;;;;2.33;2.20;;;15.90;50.80;;;;;;4972823;28;20453;-79
2024/03/24 05:01:41;;;;;;;2.10;2.00;;;15.90;50.60;;;;;;4973204;28;20434;-78
2024/03/24 05:04:09;;;;;;;1.93;1.80;;;15.90;50.90;;;;;;4972766;28;20465;-78
2024/03/24 05:06:37;;;;;;;3.73;2.27;;;15.90;50.90;;;;;;4972738;28;20960;-79
2024/03/24 05:09:04;;;;;;;2.20;2.00;;;15.90;50.90;;;;;;4973036;28;20442;-79
2024/03/24 05:11:31;;;;;;;2.90;1.90;;;15.90;50.90;;;;;;4973610;28;20442;-78
2024/03/24 05:13:58;;;;;;;1.93;1.83;;;15.90;51.00;;;;;;4973128;28;20478;-81
2024/03/24 05:16:31;;;;;;;2.60;2.07;;;15.90;50.90;;;;;;4973684;28;20442;-77
2024/03/24 05:18:59;;;;;;;2.27;2.00;;;15.90;51.00;;;;;;4972994;28;20438;-78
2024/03/24 05:21:26;;;;;;;2.80;1.80;;;15.90;51.10;;;;;;4973105;28;20442;-77
2024/03/24 05:23:53;;;;;;;2.07;1.90;;;15.90;51.10;;;;;;4972249;28;20442;-78
2024/03/24 05:26:20;;;;;;;2.73;2.20;;;15.90;51.20;;;;;;4973143;28;20434;-78
2024/03/24 05:28:46;;;;;;;3.03;2.00;;;15.90;51.10;;;;;;4973018;28;20435;-77
2024/03/24 05:31:13;;;;;;;4.73;2.50;;;15.90;51.10;;;;;;4972249;28;20450;-77
2024/03/24 05:33:41;;;;;;;1.93;1.73;;;15.90;51.00;;;;;;4972453;28;20442;-77
2024/03/24 05:36:09;;;;;;;2.90;2.30;;;15.90;51.10;;;;;;4972324;28;20458;-78
2024/03/24 05:38:35;;;;;;;1.93;1.83;;;15.90;51.20;;;;;;4972674;28;20450;-77
2024/03/24 05:41:03;;;;;;;2.50;2.10;;;15.90;51.10;;;;;;4972594;28;20437;-77
2024/03/24 05:43:29;;;;;;;2.30;1.80;;;15.90;51.20;;;;;;4972692;28;20449;-77
2024/03/24 05:45:56;;;;;;;2.00;1.90;;;15.90;51.10;;;;;;4972426;28;20458;-78
2024/03/24 05:48:25;;;;;;;2.47;2.10;;;15.90;51.20;;;;;;4972309;28;20458;-79
2024/03/24 05:51:00;;;;;;;3.30;2.07;;;15.90;51.30;;;;;;4971460;28;20461;-77
2024/03/24 05:53:26;;;;;;;1.73;1.63;;;15.90;51.30;;;;;;4972075;28;20445;-78
2024/03/24 05:55:53;;;;;;;3.47;1.80;;;15.90;51.30;;;;;;4972226;28;20510;-77
2024/03/24 05:58:19;;;;;;;1.63;1.53;;;15.90;51.40;;;;;;4971826;28;20446;-78
2024/03/24 06:00:46;;;;;;;2.27;1.73;;;15.90;51.30;;;;;;4971033;28;20468;-78
2024/03/24 06:03:12;;;;;;;1.50;1.40;;;15.90;51.50;;;;;;4960270;28;20442;-77
2024/03/24 06:05:39;;;;;;;1.60;1.50;;;15.90;51.50;;;;;;4971535;28;20469;-77
2024/03/24 06:08:08;;;;;;;3.40;1.90;;;15.90;51.40;;;;;;4984372;28;20442;-80
2024/03/24 06:10:36;;;;;;;1.90;1.80;;;15.90;51.60;;;;;;4972698;28;20439;-80
2024/03/24 06:13:02;;;;;;;3.03;1.53;;;15.90;51.50;;;;;;4973728;28;20446;-80
2024/03/24 06:15:29;;;;;;;1.73;1.63;;;15.90;51.50;;;;;;4975824;28;20473;-78
2024/03/24 06:17:56;;;;;;;2.47;1.80;;;16.00;51.50;;;;;;4975876;28;20446;-78
2024/03/24 06:20:23;;;;;;;3.47;1.70;;;15.90;51.60;;;;;;4974917;28;20458;-79
2024/03/24 06:22:51;;;;;;;1.77;1.67;;;16.00;51.60;;;;;;4982555;28;20438;-80
2024/03/24 06:25:20;;;;;;;1.70;1.60;;;15.90;51.60;;;;;;4981924;28;20470;-78
2024/03/24 06:27:46;;;;;;;1.60;1.50;;;16.00;51.80;;;;;;4977851;28;20447;-81
2024/03/24 06:30:15;;;;;;;1.70;1.60;;;16.00;51.70;;;;;;4976365;28;20454;-81
2024/03/24 06:32:41;;;;;;;1.97;1.80;;;15.90;51.60;;;;;;4983662;28;20441;-80
2024/03/24 06:35:11;;;;;;;1.90;1.70;;;16.00;51.80;;;;;;4977312;28;20484;-79
2024/03/24 06:37:38;;;;;;;1.77;1.67;;;16.00;51.70;;;;;;4968469;28;20462;-80
2024/03/24 06:40:08;;;;;;;1.83;1.73;;;16.00;51.70;;;;;;4975358;28;20437;-79
2024/03/24 06:42:43;;;;;;;1.47;1.37;;;16.00;51.70;;;;;;4976810;28;20442;-77
2024/03/24 06:45:10;;;;;;;1.50;1.50;;;16.00;51.70;;;;;;4977469;28;20457;-79
2024/03/24 06:47:36;;;;;;;1.50;1.40;;;16.00;51.80;;;;;;4976512;28;20447;-79
2024/03/24 06:50:05;;;;;;;1.77;1.67;;;16.00;51.70;;;;;;4978386;28;20442;-79
2024/03/24 06:52:31;;;;;;;2.27;1.93;;;16.10;51.70;;;;;;4993375;28;20465;-80
2024/03/24 06:54:58;;;;;;;1.70;1.60;;;16.10;51.70;;;;;;4978901;28;20488;-79
2024/03/24 06:57:24;;;;;;;1.70;1.60;;;16.10;51.60;;;;;;4975797;28;20438;-80
2024/03/24 06:59:53;;;;;;;1.93;1.77;;;16.10;51.70;;;;;;4976296;28;20446;-78
2024/03/24 07:02:19;;;;;;;2.10;1.60;;;16.10;51.70;;;;;;4975081;28;20435;-78
2024/03/24 07:04:46;;;;;;;1.67;1.57;;;16.10;51.80;;;;;;4975919;28;20466;-80
2024/03/24 07:07:13;;;;;;;1.90;1.80;;;16.20;51.70;;;;;;4975402;28;20458;-77
2024/03/24 07:09:40;;;;;;;1.43;1.33;;;16.20;51.70;;;;;;4974173;28;20476;-78
2024/03/24 07:12:06;;;;;;;1.60;1.50;;;16.20;51.70;;;;;;4991754;28;20441;-78
2024/03/24 07:14:34;;;;;;;1.73;1.60;;;16.30;51.90;;;;;;4974811;28;20481;-80
2024/03/24 07:17:01;;;;;;;1.33;1.23;;;16.30;51.60;;;;;;4974829;28;20439;-78
2024/03/24 07:19:28;;;;;;;1.97;1.70;;;16.30;51.60;;;;;;4974574;28;20442;-80
2024/03/24 07:21:54;;;;;;;1.70;1.60;;;16.30;51.60;;;;;;4975475;28;20435;-80
2024/03/24 07:24:22;;;;;;;1.63;1.53;;;16.30;51.60;;;;;;4978311;28;20553;-78
2024/03/24 07:26:48;;;;;;;1.37;1.27;;;16.40;51.60;;;;;;4984342;28;20510;-79
2024/03/24 07:29:15;;;;;;;2.00;1.80;;;16.30;51.60;;;;;;4979043;28;20441;-78
2024/03/24 07:31:42;;;;;;;1.50;1.40;;;16.30;51.60;;;;;;4980411;28;20497;-79
2024/03/24 07:34:10;;;;;;;1.83;1.73;;;16.30;51.60;;;;;;4973111;28;20475;-77
2024/03/24 07:36:36;;;;;;;1.43;1.33;;;16.30;51.70;;;;;;4970379;28;20454;-76
2024/03/24 07:39:04;;;;;;;2.27;1.50;;;16.30;51.60;;;;;;4971936;28;20635;-79
2024/03/24 07:41:30;;;;;;;1.60;1.50;;;16.30;51.80;;;;;;4974213;28;20438;-78
2024/03/24 07:43:57;;;;;;;1.53;1.43;;;16.20;51.60;;;;;;4974311;28;20525;-77
2024/03/24 07:46:28;;;;;;;1.27;1.17;;;16.20;51.80;;;;;;4970160;28;20438;-78
2024/03/24 07:48:57;;;;;;;1.63;1.53;;;16.20;51.80;;;;;;4975346;28;20443;-79
2024/03/24 07:51:30;;;;;;;4.33;1.43;;;16.20;51.80;;;;;;4987539;28;20441;-78
2024/03/24 07:53:58;;;;;;;1.30;1.20;;;16.30;52.00;;;;;;4977222;28;20462;-78
2024/03/24 07:56:24;;;;;;;1.50;1.40;;;16.20;51.90;;;;;;4979003;28;20441;-78
2024/03/24 07:58:52;;;;;;;1.33;1.23;;;16.30;51.80;;;;;;4976120;28;20442;-78
2024/03/24 08:01:18;;;;;;;1.30;1.10;;;16.30;51.90;;;;;;4981041;28;20438;-77
2024/03/24 08:03:46;;;;;;;1.43;1.33;;;16.30;51.90;;;;;;4975181;28;20450;-77
2024/03/24 08:06:15;;;;;;;1.47;1.37;;;16.30;52.00;;;;;;4990618;28;20465;-77
2024/03/24 08:08:53;;;;;;;1.20;1.20;;;16.30;51.90;;;;;;4974715;28;20470;-79
2024/03/24 08:11:23;;;;;;;1.40;1.30;;;16.40;51.90;;;;;;4975526;28;20438;-78
2024/03/24 08:13:51;;;;;;;2.50;1.30;;;16.40;51.90;;;;;;4973543;28;20454;-78
2024/03/24 08:16:17;;;;;;;1.57;1.47;;;16.50;52.10;;;;;;4973453;28;20489;-77
2024/03/24 08:18:44;;;;;;;1.63;1.53;;;16.50;51.80;;;;;;4988500;28;20449;-79
2024/03/24 08:21:10;;;;;;;3.70;1.63;;;16.50;51.90;;;;;;4984792;28;20446;-76
2024/03/24 08:23:38;;;;;;;1.23;1.20;;;16.50;51.80;;;;;;4979618;28;20449;-78
2024/03/24 08:26:06;;;;;;;1.20;1.20;;;16.50;51.80;;;;;;4985111;28;20480;-80
2024/03/24 08:28:33;;;;;;;1.67;1.57;;;16.50;51.90;;;;;;4978429;28;20438;-79
2024/03/24 08:31:02;;;;;;;1.10;1.10;;;16.50;51.80;;;;;;4973528;28;20450;-79
2024/03/24 08:33:29;;;;;;;1.30;1.20;;;16.50;51.90;;;;;;4985924;28;20450;-80
2024/03/24 08:35:58;;;;;;;1.67;1.57;;;16.50;52.60;;;;;;4976426;28;20478;-79
2024/03/24 08:38:26;;;;;;;1.47;1.37;;;16.50;51.90;;;;;;4966255;28;20470;-79
2024/03/24 08:40:52;;;;;;;1.30;1.30;;;16.50;52.10;;;;;;4973875;28;20442;-79
2024/03/24 08:43:24;;;;;;;1.53;1.30;;;16.50;52.00;;;;;;4973558;28;20438;-78
2024/03/24 08:45:50;;;;;;;1.63;1.20;;;16.50;51.90;;;;;;4967037;28;20466;-79
2024/03/24 08:48:18;;;;;;;1.17;1.07;;;16.60;52.10;;;;;;4972515;28;20446;-79
2024/03/24 08:50:49;;;;;;;2.10;1.40;;;16.60;52.20;;;;;;4967263;28;20451;-80
2024/03/24 08:53:16;;;;;;;1.87;1.50;;;16.60;52.00;;;;;;4970103;28;20439;-78
2024/03/24 08:55:45;;;;;;;2.40;1.50;;;16.70;52.00;;;;;;4976712;28;20488;-80
2024/03/24 08:58:18;;;;;;;1.37;1.27;;;16.70;52.00;;;;;;4984211;28;20449;-80
2024/03/24 09:00:56;;;;;;;1.40;1.30;;;16.80;52.20;;;;;;4973750;28;20450;-79
2024/03/24 09:03:29;;;;;;;1.50;1.40;;;17.00;52.10;;;;;;4982297;28;20441;-76
2024/03/24 09:06:06;;;;;;;1.10;1.10;;;17.10;52.00;;;;;;4972829;28;20462;-78
2024/03/24 09:08:33;;;;;;;3.90;1.50;;;17.30;52.10;;;;;;4972195;28;20449;-78
2024/03/24 09:11:03;;;;;;;1.50;1.40;;;17.50;51.90;;;;;;4979884;28;20441;-79
2024/03/24 09:13:32;;;;;;;1.63;1.47;;;17.70;51.80;;;;;;4968280;28;20447;-80
2024/03/24 09:16:05;;;;;;;1.40;1.30;;;17.90;51.90;;;;;;4981643;28;20991;-81
2024/03/24 09:18:35;;;;;;;1.30;1.30;;;18.00;51.60;;;;;;4973305;28;20446;-79
2024/03/24 09:21:05;;;;;;;1.77;1.40;;;18.10;51.40;;;;;;4974008;28;20453;-79
2024/03/24 09:23:33;;;;;;;2.50;1.40;;;18.20;51.40;;;;;;4966476;28;20442;-78
2024/03/24 09:26:04;;;;;;;1.47;1.13;;;18.30;51.50;;;;;;4974764;28;20473;-78
2024/03/24 09:28:30;;;;;;;1.60;1.30;;;18.40;51.40;;;;;;4961734;28;20442;-78
2024/03/24 09:30:58;;;;;;;1.50;1.40;;;18.40;51.50;;;;;;4978876;28;20985;-78
2024/03/24 09:33:27;;;;;;;1.43;1.30;;;18.50;51.40;;;;;;4970741;28;20445;-80
2024/03/24 09:35:54;;;;;;;1.67;1.50;;;18.50;51.30;;;;;;4976511;28;20482;-82
2024/03/24 09:38:21;;;;;;;1.60;1.20;;;18.50;51.20;;;;;;4971301;28;20451;-79
2024/03/24 09:40:52;;;;;;;1.83;1.10;;;18.50;51.40;;;;;;4974716;28;20450;-79
2024/03/24 09:43:18;;;;;;;1.53;1.10;;;18.50;51.20;;;;;;4975222;28;20446;-80
2024/03/24 09:45:45;;;;;;;1.70;1.60;;;18.40;51.20;;;;;;4970781;28;20458;-80
2024/03/24 09:48:16;;;;;;;1.37;1.27;;;18.30;51.30;;;;;;4976691;28;20496;-82
2024/03/24 09:50:44;;;;;;;1.70;1.60;;;18.30;51.40;;;;;;4978936;28;20434;-80
2024/03/24 09:53:11;;;;;;;1.27;1.17;;;18.30;51.40;;;;;;4979316;28;20442;-82
2024/03/24 09:55:38;;;;;;;1.73;1.30;;;18.30;51.60;;;;;;4974558;28;20466;-79
2024/03/24 09:58:07;;;;;;;1.30;1.20;;;18.30;51.50;;;;;;4970318;28;20441;-81
2024/03/24 10:00:35;;;;;;;1.33;1.23;;;18.30;51.40;;;;;;4969895;28;20445;-78
2024/03/24 10:03:01;;;;;;;1.90;1.17;;;18.30;51.70;;;;;;4971188;28;20442;-79
2024/03/24 10:05:30;;;;;;;1.23;1.13;;;18.40;51.60;;;;;;4972366;28;20469;-78
2024/03/24 10:08:00;;;;;;;2.37;1.00;;;18.50;51.70;;;;;;4967042;28;20450;-78
2024/03/24 10:10:30;;;;;;;1.20;1.10;;;18.50;51.50;;;;;;4969886;28;20454;-79
2024/03/24 10:12:57;;;;;;;1.70;1.20;;;18.60;51.40;;;;;;4967097;28;20473;-78
2024/03/24 10:15:25;;;;;;;0.90;0.90;;;18.60;51.10;;;;;;4970207;28;20471;-77
2024/03/24 10:18:09;;;;;;;1.20;1.17;;;18.50;51.10;;;;;;4969095;28;20442;-79
2024/03/24 10:20:38;;;;;;;1.47;1.20;;;18.50;51.30;;;;;;4975409;28;20449;-80
2024/03/24 10:23:06;;;;;;;2.30;1.40;;;18.50;51.40;;;;;;4969602;28;20439;-78
2024/03/24 10:25:33;;;;;;;1.20;1.20;;;18.50;51.40;;;;;;4970179;28;20461;-79
2024/03/24 10:28:00;;;;;;;1.37;1.27;;;18.40;51.30;;;;;;4969811;28;20438;-79
2024/03/24 10:30:46;;;;;;;1.00;1.00;;;18.40;51.30;;;;;;4971121;28;20438;-80
2024/03/24 10:33:12;;;;;;;1.00;1.00;;;18.40;51.50;;;;;;4971044;28;20437;-81
2024/03/24 10:35:39;;;;;;;2.03;1.10;;;18.40;51.40;;;;;;4981787;28;20482;-82
2024/03/24 10:38:09;;;;;;;1.23;1.13;;;18.30;51.50;;;;;;4969703;28;20446;-79
2024/03/24 10:40:36;;;;;;;1.43;1.00;;;18.30;51.50;;;;;;4975238;28;20442;-79
2024/03/24 10:43:03;;;;;;;1.63;0.80;;;18.20;51.40;;;;;;4972792;28;20447;-79
2024/03/24 10:45:29;;;;;;;1.17;1.10;;;18.20;51.60;;;;;;4970185;28;20436;-80
2024/03/24 10:48:00;;;;;;;1.30;1.17;;;18.20;51.60;;;;;;4967922;28;20439;-80
2024/03/24 10:50:30;;;;;;;1.07;1.00;;;18.10;51.70;;;;;;4970397;28;20443;-79
2024/03/24 10:52:59;;;;;;;2.10;1.20;;;18.10;51.90;;;;;;4967017;28;20447;-80
2024/03/24 10:55:27;;;;;;;1.10;1.00;;;18.10;51.80;;;;;;4974264;28;21047;-80
2024/03/24 10:57:58;;;;;;;2.20;1.37;;;18.10;51.70;;;;;;4969241;28;20485;-80
2024/03/24 11:00:28;;;;;;;1.10;1.00;;;18.10;51.70;;;;;;4974181;28;20446;-81
2024/03/24 11:02:54;;;;;;;1.17;1.00;;;18.10;51.90;;;;;;4971714;28;20458;-79
2024/03/24 11:05:21;;;;;;;1.23;1.00;;;18.30;52.10;;;;;;4970744;28;20463;-84
2024/03/24 11:07:47;;;;;;;1.07;0.90;;;18.40;51.90;;;;;;4989773;28;20957;-80
2024/03/24 11:10:18;;;;;;;1.00;0.90;;;18.40;52.30;;;;;;4964598;28;20502;-81
2024/03/24 11:12:45;;;;;;;1.40;1.00;;;18.50;51.40;;;;;;4969076;28;20797;-81
2024/03/24 11:15:12;;;;;;;1.10;0.83;;;18.40;51.30;;;;;;4961737;28;20479;-81
2024/03/24 11:17:44;;;;;;;1.03;0.93;;;18.30;51.30;;;;;;4968066;28;20451;-80
2024/03/24 11:21:19;;;;;;;1.23;0.90;;;18.30;51.40;;;;;;4966801;28;20469;-79
2024/03/24 11:23:46;;;;;;;1.20;1.03;;;18.20;51.60;;;;;;4843560;29;20451;-79
2024/03/24 11:26:18;;;;;;;2.90;1.10;;;18.20;51.70;;;;;;4944568;28;20453;-79
2024/03/24 11:28:49;;;;;;;1.13;1.03;;;18.20;51.60;;;;;;4969263;28;20517;-81
2024/03/24 11:31:31;;;;;;;1.53;1.13;;;18.20;51.70;;;;;;4995666;28;20451;-79
2024/03/24 11:34:10;;;;;;;2.27;1.13;;;18.10;51.60;;;;;;4970968;28;20458;-79
2024/03/24 11:36:40;;;;;;;1.43;1.00;;;18.10;51.80;;;;;;4966546;28;20478;-79
2024/03/24 11:39:07;;;;;;;1.47;1.07;;;18.10;51.90;;;;;;4965500;28;20450;-78
2024/03/24 11:41:35;;;;;;;1.97;1.00;;;18.00;51.70;;;;;;4970633;28;20457;-78
2024/03/24 11:44:03;;;;;;;1.57;1.00;;;18.00;51.80;;;;;;4969579;28;20442;-79
2024/03/24 11:46:31;;;;;;;1.20;1.10;;;17.90;52.10;;;;;;4968947;28;20435;-78
2024/03/24 11:48:57;;;;;;;1.90;1.00;;;17.90;52.00;;;;;;4968925;28;20442;-77
2024/03/24 11:51:25;;;;;;;1.20;1.03;;;17.80;52.00;;;;;;4969293;28;20451;-77
2024/03/24 11:53:52;;;;;;;1.57;1.23;;;17.80;52.20;;;;;;4966917;28;20443;-78
2024/03/24 11:56:21;;;;;;;1.20;1.10;;;17.80;52.50;;;;;;4967214;28;20475;-79
2024/03/24 11:59:24;;;;;;;1.30;1.20;;;18.10;52.90;;;;;;4970130;28;20454;-79
2024/03/24 12:05:56;;;;;;;2.30;1.17;;;18.40;52.10;;;;;;4967034;28;20471;-79
2024/03/24 12:08:24;;;;;;;1.93;1.67;;;18.60;52.10;;;;;;4958537;28;20442;-79
2024/03/24 12:10:52;;;;;;;1.10;1.10;;;18.80;51.70;;;;;;4973043;28;20449;-79
2024/03/24 12:13:18;;;;;;;1.73;1.57;;;18.90;51.60;;;;;;4973284;28;20430;-79
2024/03/24 12:15:47;;;;;;;1.50;1.40;;;18.90;50.80;;;;;;4971720;28;20484;-79
2024/03/24 12:18:13;;;;;;;2.20;1.33;;;18.80;50.80;;;;;;4955095;29;20440;-78
2024/03/24 12:20:40;;;;;;;1.73;1.40;;;18.70;50.90;;;;;;4955664;29;20446;-79
2024/03/24 12:23:06;;;;;;;1.70;1.60;;;18.60;51.00;;;;;;4955419;29;20443;-78
2024/03/24 12:25:33;;;;;;;2.03;1.43;;;18.50;51.20;;;;;;4960657;28;20482;-81
2024/03/24 12:28:00;;;;;;;1.70;1.60;;;18.40;51.50;;;;;;4970663;28;20447;-79
2024/03/24 12:30:28;;;;;;;3.80;1.67;;;18.30;51.80;;;;;;4960929;29;20443;-79
2024/03/24 12:32:56;;;;;;;1.40;1.30;;;18.20;51.90;;;;;;4966884;28;20443;-80
2024/03/24 12:35:23;;;;;;;1.60;1.50;;;18.20;52.10;;;;;;4964755;28;20475;-80
2024/03/24 12:37:58;;;;;;;2.13;1.90;;;18.20;52.40;;;;;;4955279;29;20446;-79
2024/03/24 12:40:27;;;;;;;1.60;1.50;;;18.30;52.50;;;;;;4955748;29;20470;-80
2024/03/24 12:42:54;;;;;;;3.23;1.73;;;18.40;52.60;;;;;;4962298;28;20450;-79
2024/03/24 12:45:21;;;;;;;5.13;1.20;;;17.90;52.80;;;;;;4956578;28;20486;-79
2024/03/24 12:47:50;;;;;;;6.77;1.80;;;15.50;54.00;;;;;;4954341;29;20447;-77
2024/03/24 12:50:28;;;;;;;2.97;1.80;;;14.20;57.40;;;;;;4954703;29;20452;-78
2024/03/24 12:53:10;;;;;;;6.10;1.83;;;13.80;61.00;;;;;;4960486;28;20577;-80
2024/03/24 12:55:51;;;;;;;5.60;2.00;;;14.60;64.20;;;;;;4971440;28;20485;-79